sensor_id;sensor_type;location;lat;lon;timestamp;P1;durP1;ratioP1;P2;durP2;ratioP2
35917;SDS011;22011;59.912;30.300;2023-09-19T00:00:06;4.07;;;2.25;;
35917;SDS011;22011;59.912;30.300;2023-09-19T00:02:36;4.38;;;2.55;;
35917;SDS011;22011;59.912;30.300;2023-09-19T00:05:05;5.28;;;2.55;;
35917;SDS011;22011;59.912;30.300;2023-09-19T00:07:35;4.40;;;2.83;;
35917;SDS011;22011;59.912;30.300;2023-09-19T00:10:03;7.05;;;3.47;;
35917;SDS011;22011;59.912;30.300;2023-09-19T00:12:36;6.05;;;2.78;;
35917;SDS011;22011;59.912;30.300;2023-09-19T00:15:04;5.38;;;2.83;;
35917;SDS011;22011;59.912;30.300;2023-09-19T00:17:32;7.15;;;3.47;;
35917;SDS011;22011;59.912;30.300;2023-09-19T00:20:00;9.48;;;4.07;;
35917;SDS011;22011;59.912;30.300;2023-09-19T00:22:39;4.97;;;2.78;;
35917;SDS011;22011;59.912;30.300;2023-09-19T00:25:08;4.67;;;2.50;;
35917;SDS011;22011;59.912;30.300;2023-09-19T00:27:39;5.35;;;2.70;;
35917;SDS011;22011;59.912;30.300;2023-09-19T00:30:08;3.63;;;2.15;;
35917;SDS011;22011;59.912;30.300;2023-09-19T00:32:41;9.32;;;3.05;;
35917;SDS011;22011;59.912;30.300;2023-09-19T00:35:10;4.75;;;2.08;;
35917;SDS011;22011;59.912;30.300;2023-09-19T00:37:37;6.75;;;2.60;;
35917;SDS011;22011;59.912;30.300;2023-09-19T00:40:08;7.88;;;2.50;;
35917;SDS011;22011;59.912;30.300;2023-09-19T00:42:39;5.20;;;2.42;;
35917;SDS011;22011;59.912;30.300;2023-09-19T00:45:07;6.25;;;3.67;;
35917;SDS011;22011;59.912;30.300;2023-09-19T00:47:38;8.45;;;3.50;;
35917;SDS011;22011;59.912;30.300;2023-09-19T00:50:07;8.63;;;2.95;;
35917;SDS011;22011;59.912;30.300;2023-09-19T00:52:36;5.33;;;2.63;;
35917;SDS011;22011;59.912;30.300;2023-09-19T00:55:06;8.95;;;3.75;;
35917;SDS011;22011;59.912;30.300;2023-09-19T00:57:34;15.35;;;3.58;;
35917;SDS011;22011;59.912;30.300;2023-09-19T01:00:06;7.47;;;3.27;;
35917;SDS011;22011;59.912;30.300;2023-09-19T01:02:38;15.15;;;3.85;;
35917;SDS011;22011;59.912;30.300;2023-09-19T01:05:06;9.18;;;3.70;;
35917;SDS011;22011;59.912;30.300;2023-09-19T01:07:33;8.77;;;3.70;;
35917;SDS011;22011;59.912;30.300;2023-09-19T01:10:02;6.75;;;3.80;;
35917;SDS011;22011;59.912;30.300;2023-09-19T01:12:36;6.30;;;3.95;;
35917;SDS011;22011;59.912;30.300;2023-09-19T01:15:15;12.07;;;4.28;;
35917;SDS011;22011;59.912;30.300;2023-09-19T01:17:50;12.40;;;5.90;;
35917;SDS011;22011;59.912;30.300;2023-09-19T01:20:27;12.45;;;5.72;;
35917;SDS011;22011;59.912;30.300;2023-09-19T01:23:11;11.35;;;5.78;;
35917;SDS011;22011;59.912;30.300;2023-09-19T01:26:03;11.43;;;7.03;;
35917;SDS011;22011;59.912;30.300;2023-09-19T01:31:23;14.82;;;8.55;;
35917;SDS011;22011;59.912;30.300;2023-09-19T01:33:54;19.00;;;9.73;;
35917;SDS011;22011;59.912;30.300;2023-09-19T01:36:29;16.88;;;10.38;;
35917;SDS011;22011;59.912;30.300;2023-09-19T01:39:00;14.93;;;9.15;;
35917;SDS011;22011;59.912;30.300;2023-09-19T01:41:35;16.50;;;9.82;;
35917;SDS011;22011;59.912;30.300;2023-09-19T01:44:14;18.00;;;9.02;;
35917;SDS011;22011;59.912;30.300;2023-09-19T01:46:50;15.80;;;8.05;;
35917;SDS011;22011;59.912;30.300;2023-09-19T01:49:22;14.70;;;8.98;;
35917;SDS011;22011;59.912;30.300;2023-09-19T01:52:06;15.27;;;9.40;;
35917;SDS011;22011;59.912;30.300;2023-09-19T01:54:41;17.85;;;9.90;;
35917;SDS011;22011;59.912;30.300;2023-09-19T01:57:16;17.52;;;10.70;;
35917;SDS011;22011;59.912;30.300;2023-09-19T01:59:50;16.58;;;9.50;;
35917;SDS011;22011;59.912;30.300;2023-09-19T02:02:25;14.73;;;9.98;;
35917;SDS011;22011;59.912;30.300;2023-09-19T02:04:55;13.80;;;8.05;;
35917;SDS011;22011;59.912;30.300;2023-09-19T02:07:26;16.02;;;9.38;;
35917;SDS011;22011;59.912;30.300;2023-09-19T02:09:54;13.88;;;8.30;;
35917;SDS011;22011;59.912;30.300;2023-09-19T02:12:22;12.32;;;7.57;;
35917;SDS011;22011;59.912;30.300;2023-09-19T02:14:50;15.73;;;8.85;;
35917;SDS011;22011;59.912;30.300;2023-09-19T02:17:17;12.88;;;7.88;;
35917;SDS011;22011;59.912;30.300;2023-09-19T02:19:46;13.73;;;7.85;;
35917;SDS011;22011;59.912;30.300;2023-09-19T02:22:14;14.00;;;7.33;;
35917;SDS011;22011;59.912;30.300;2023-09-19T02:24:42;13.48;;;7.85;;
35917;SDS011;22011;59.912;30.300;2023-09-19T02:27:12;12.05;;;6.95;;
35917;SDS011;22011;59.912;30.300;2023-09-19T02:29:41;14.05;;;8.38;;
35917;SDS011;22011;59.912;30.300;2023-09-19T02:32:09;14.35;;;8.75;;
35917;SDS011;22011;59.912;30.300;2023-09-19T02:34:37;15.40;;;8.95;;
35917;SDS011;22011;59.912;30.300;2023-09-19T02:37:07;12.23;;;8.32;;
35917;SDS011;22011;59.912;30.300;2023-09-19T02:39:35;20.00;;;9.87;;
35917;SDS011;22011;59.912;30.300;2023-09-19T02:42:03;14.70;;;8.55;;
35917;SDS011;22011;59.912;30.300;2023-09-19T02:44:32;13.65;;;8.48;;
35917;SDS011;22011;59.912;30.300;2023-09-19T02:47:01;13.38;;;8.88;;
35917;SDS011;22011;59.912;30.300;2023-09-19T02:49:29;11.48;;;8.27;;
35917;SDS011;22011;59.912;30.300;2023-09-19T02:51:57;11.90;;;9.07;;
35917;SDS011;22011;59.912;30.300;2023-09-19T02:54:27;16.42;;;10.50;;
35917;SDS011;22011;59.912;30.300;2023-09-19T02:56:54;15.40;;;10.02;;
35917;SDS011;22011;59.912;30.300;2023-09-19T02:59:22;14.98;;;9.05;;
35917;SDS011;22011;59.912;30.300;2023-09-19T03:01:51;12.27;;;8.75;;
35917;SDS011;22011;59.912;30.300;2023-09-19T03:04:20;12.50;;;8.15;;
35917;SDS011;22011;59.912;30.300;2023-09-19T03:06:48;12.30;;;9.30;;
35917;SDS011;22011;59.912;30.300;2023-09-19T03:09:17;17.08;;;8.75;;
35917;SDS011;22011;59.912;30.300;2023-09-19T03:11:47;16.92;;;8.77;;
35917;SDS011;22011;59.912;30.300;2023-09-19T03:14:15;11.50;;;8.13;;
35917;SDS011;22011;59.912;30.300;2023-09-19T03:16:47;16.10;;;8.85;;
35917;SDS011;22011;59.912;30.300;2023-09-19T03:19:15;11.18;;;7.97;;
35917;SDS011;22011;59.912;30.300;2023-09-19T03:21:44;11.80;;;8.05;;
35917;SDS011;22011;59.912;30.300;2023-09-19T03:24:12;11.93;;;7.65;;
35917;SDS011;22011;59.912;30.300;2023-09-19T03:26:40;14.73;;;7.90;;
35917;SDS011;22011;59.912;30.300;2023-09-19T03:29:09;11.23;;;7.15;;
35917;SDS011;22011;59.912;30.300;2023-09-19T03:31:38;11.48;;;6.80;;
35917;SDS011;22011;59.912;30.300;2023-09-19T03:34:08;9.68;;;7.18;;
35917;SDS011;22011;59.912;30.300;2023-09-19T03:36:36;11.68;;;5.65;;
35917;SDS011;22011;59.912;30.300;2023-09-19T03:39:04;8.10;;;5.35;;
35917;SDS011;22011;59.912;30.300;2023-09-19T03:41:32;9.77;;;5.78;;
35917;SDS011;22011;59.912;30.300;2023-09-19T03:46:32;9.55;;;5.47;;
35917;SDS011;22011;59.912;30.300;2023-09-19T03:49:01;8.40;;;5.30;;
35917;SDS011;22011;59.912;30.300;2023-09-19T03:51:29;10.02;;;5.40;;
35917;SDS011;22011;59.912;30.300;2023-09-19T03:53:57;7.90;;;3.67;;
35917;SDS011;22011;59.912;30.300;2023-09-19T03:56:24;6.00;;;3.67;;
35917;SDS011;22011;59.912;30.300;2023-09-19T03:58:52;7.05;;;3.30;;
35917;SDS011;22011;59.912;30.300;2023-09-19T04:01:20;5.10;;;2.92;;
35917;SDS011;22011;59.912;30.300;2023-09-19T04:03:49;5.25;;;3.22;;
35917;SDS011;22011;59.912;30.300;2023-09-19T04:06:17;8.00;;;2.80;;
35917;SDS011;22011;59.912;30.300;2023-09-19T04:08:45;5.22;;;2.78;;
35917;SDS011;22011;59.912;30.300;2023-09-19T04:11:13;4.13;;;2.40;;
35917;SDS011;22011;59.912;30.300;2023-09-19T04:13:41;3.13;;;2.42;;
35917;SDS011;22011;59.912;30.300;2023-09-19T04:16:09;4.18;;;2.35;;
35917;SDS011;22011;59.912;30.300;2023-09-19T04:18:36;5.70;;;2.60;;
35917;SDS011;22011;59.912;30.300;2023-09-19T04:21:07;6.47;;;2.78;;
35917;SDS011;22011;59.912;30.300;2023-09-19T04:23:35;4.32;;;2.30;;
35917;SDS011;22011;59.912;30.300;2023-09-19T04:26:03;4.53;;;3.08;;
35917;SDS011;22011;59.912;30.300;2023-09-19T04:28:31;10.30;;;3.13;;
35917;SDS011;22011;59.912;30.300;2023-09-19T04:31:00;3.13;;;2.22;;
35917;SDS011;22011;59.912;30.300;2023-09-19T04:33:27;4.38;;;2.42;;
35917;SDS011;22011;59.912;30.300;2023-09-19T04:35:55;5.25;;;3.33;;
35917;SDS011;22011;59.912;30.300;2023-09-19T04:38:24;3.25;;;2.28;;
35917;SDS011;22011;59.912;30.300;2023-09-19T04:40:56;3.40;;;2.50;;
35917;SDS011;22011;59.912;30.300;2023-09-19T04:43:25;3.33;;;2.00;;
35917;SDS011;22011;59.912;30.300;2023-09-19T04:45:52;5.45;;;2.40;;
35917;SDS011;22011;59.912;30.300;2023-09-19T04:48:21;3.67;;;2.45;;
35917;SDS011;22011;59.912;30.300;2023-09-19T04:50:51;3.38;;;2.30;;
35917;SDS011;22011;59.912;30.300;2023-09-19T04:53:19;3.85;;;2.75;;
35917;SDS011;22011;59.912;30.300;2023-09-19T04:55:51;4.30;;;2.60;;
35917;SDS011;22011;59.912;30.300;2023-09-19T04:58:21;3.60;;;2.30;;
35917;SDS011;22011;59.912;30.300;2023-09-19T05:00:49;7.38;;;2.85;;
35917;SDS011;22011;59.912;30.300;2023-09-19T05:03:17;7.22;;;2.22;;
35917;SDS011;22011;59.912;30.300;2023-09-19T05:05:46;4.85;;;2.40;;
35917;SDS011;22011;59.912;30.300;2023-09-19T05:08:13;2.65;;;2.03;;
35917;SDS011;22011;59.912;30.300;2023-09-19T05:10:41;5.50;;;2.20;;
35917;SDS011;22011;59.912;30.300;2023-09-19T05:13:10;4.78;;;2.20;;
35917;SDS011;22011;59.912;30.300;2023-09-19T05:15:38;7.78;;;3.30;;
35917;SDS011;22011;59.912;30.300;2023-09-19T05:18:06;4.70;;;2.20;;
35917;SDS011;22011;59.912;30.300;2023-09-19T05:20:34;4.60;;;2.30;;
35917;SDS011;22011;59.912;30.300;2023-09-19T05:23:04;6.53;;;2.38;;
35917;SDS011;22011;59.912;30.300;2023-09-19T05:25:34;6.90;;;2.80;;
35917;SDS011;22011;59.912;30.300;2023-09-19T05:28:04;6.15;;;3.20;;
35917;SDS011;22011;59.912;30.300;2023-09-19T05:30:35;3.03;;;2.72;;
35917;SDS011;22011;59.912;30.300;2023-09-19T05:33:04;11.10;;;3.58;;
35917;SDS011;22011;59.912;30.300;2023-09-19T05:35:32;5.40;;;3.63;;
35917;SDS011;22011;59.912;30.300;2023-09-19T05:37:59;10.10;;;4.05;;
35917;SDS011;22011;59.912;30.300;2023-09-19T05:40:27;11.20;;;4.68;;
35917;SDS011;22011;59.912;30.300;2023-09-19T05:42:55;7.50;;;4.13;;
35917;SDS011;22011;59.912;30.300;2023-09-19T05:45:22;6.45;;;4.35;;
35917;SDS011;22011;59.912;30.300;2023-09-19T05:47:52;9.90;;;4.82;;
35917;SDS011;22011;59.912;30.300;2023-09-19T05:50:21;5.78;;;4.20;;
35917;SDS011;22011;59.912;30.300;2023-09-19T05:52:53;6.40;;;4.57;;
35917;SDS011;22011;59.912;30.300;2023-09-19T05:55:22;5.05;;;3.97;;
35917;SDS011;22011;59.912;30.300;2023-09-19T05:57:51;4.63;;;3.55;;
35917;SDS011;22011;59.912;30.300;2023-09-19T06:00:19;7.07;;;3.78;;
35917;SDS011;22011;59.912;30.300;2023-09-19T06:02:52;8.38;;;3.55;;
35917;SDS011;22011;59.912;30.300;2023-09-19T06:05:20;9.95;;;2.60;;
35917;SDS011;22011;59.912;30.300;2023-09-19T06:07:49;5.68;;;3.20;;
35917;SDS011;22011;59.912;30.300;2023-09-19T06:10:18;6.95;;;2.90;;
35917;SDS011;22011;59.912;30.300;2023-09-19T06:12:46;3.72;;;2.60;;
35917;SDS011;22011;59.912;30.300;2023-09-19T06:15:14;5.03;;;2.30;;
35917;SDS011;22011;59.912;30.300;2023-09-19T06:17:46;4.18;;;2.80;;
35917;SDS011;22011;59.912;30.300;2023-09-19T06:20:16;5.28;;;2.38;;
35917;SDS011;22011;59.912;30.300;2023-09-19T06:22:45;4.20;;;2.38;;
35917;SDS011;22011;59.912;30.300;2023-09-19T06:25:13;8.27;;;2.15;;
35917;SDS011;22011;59.912;30.300;2023-09-19T06:27:45;7.07;;;2.72;;
35917;SDS011;22011;59.912;30.300;2023-09-19T06:30:12;7.35;;;2.72;;
35917;SDS011;22011;59.912;30.300;2023-09-19T06:32:40;6.05;;;2.75;;
35917;SDS011;22011;59.912;30.300;2023-09-19T06:35:09;4.18;;;2.35;;
35917;SDS011;22011;59.912;30.300;2023-09-19T06:37:39;7.28;;;2.00;;
35917;SDS011;22011;59.912;30.300;2023-09-19T06:42:39;16.05;;;2.70;;
35917;SDS011;22011;59.912;30.300;2023-09-19T06:45:08;7.22;;;3.00;;
35917;SDS011;22011;59.912;30.300;2023-09-19T06:47:37;11.35;;;2.72;;
35917;SDS011;22011;59.912;30.300;2023-09-19T06:50:05;5.47;;;2.72;;
35917;SDS011;22011;59.912;30.300;2023-09-19T06:52:40;8.88;;;3.15;;
35917;SDS011;22011;59.912;30.300;2023-09-19T06:55:08;10.93;;;2.75;;
35917;SDS011;22011;59.912;30.300;2023-09-19T06:57:39;5.43;;;2.50;;
35917;SDS011;22011;59.912;30.300;2023-09-19T07:00:09;6.75;;;2.30;;
35917;SDS011;22011;59.912;30.300;2023-09-19T07:02:41;9.63;;;2.97;;
35917;SDS011;22011;59.912;30.300;2023-09-19T07:05:09;8.02;;;2.33;;
35917;SDS011;22011;59.912;30.300;2023-09-19T07:07:37;6.30;;;3.28;;
35917;SDS011;22011;59.912;30.300;2023-09-19T07:10:06;3.13;;;2.40;;
35917;SDS011;22011;59.912;30.300;2023-09-19T07:12:37;5.85;;;2.97;;
35917;SDS011;22011;59.912;30.300;2023-09-19T07:15:05;5.35;;;2.30;;
35917;SDS011;22011;59.912;30.300;2023-09-19T07:17:33;14.82;;;2.90;;
35917;SDS011;22011;59.912;30.300;2023-09-19T07:20:01;5.88;;;2.45;;
35917;SDS011;22011;59.912;30.300;2023-09-19T07:22:33;5.28;;;2.50;;
35917;SDS011;22011;59.912;30.300;2023-09-19T07:25:02;8.13;;;2.80;;
35917;SDS011;22011;59.912;30.300;2023-09-19T07:27:32;5.00;;;2.30;;
35917;SDS011;22011;59.912;30.300;2023-09-19T07:29:59;5.63;;;2.42;;
35917;SDS011;22011;59.912;30.300;2023-09-19T07:32:27;5.78;;;2.83;;
35917;SDS011;22011;59.912;30.300;2023-09-19T07:34:54;8.68;;;3.03;;
35917;SDS011;22011;59.912;30.300;2023-09-19T07:37:22;8.48;;;3.10;;
35917;SDS011;22011;59.912;30.300;2023-09-19T07:39:51;8.90;;;3.00;;
35917;SDS011;22011;59.912;30.300;2023-09-19T07:42:19;7.13;;;2.92;;
35917;SDS011;22011;59.912;30.300;2023-09-19T07:44:48;4.93;;;3.08;;
35917;SDS011;22011;59.912;30.300;2023-09-19T07:47:16;10.27;;;2.85;;
35917;SDS011;22011;59.912;30.300;2023-09-19T07:49:46;6.68;;;3.42;;
35917;SDS011;22011;59.912;30.300;2023-09-19T07:54:42;7.03;;;3.50;;
35917;SDS011;22011;59.912;30.300;2023-09-19T07:57:10;4.25;;;2.88;;
35917;SDS011;22011;59.912;30.300;2023-09-19T07:59:38;6.38;;;3.08;;
35917;SDS011;22011;59.912;30.300;2023-09-19T08:02:09;6.00;;;2.95;;
35917;SDS011;22011;59.912;30.300;2023-09-19T08:04:41;17.15;;;4.03;;
35917;SDS011;22011;59.912;30.300;2023-09-19T08:07:09;6.97;;;3.40;;
35917;SDS011;22011;59.912;30.300;2023-09-19T08:09:37;6.68;;;3.55;;
35917;SDS011;22011;59.912;30.300;2023-09-19T08:12:04;11.23;;;3.78;;
35917;SDS011;22011;59.912;30.300;2023-09-19T08:14:34;8.20;;;3.43;;
35917;SDS011;22011;59.912;30.300;2023-09-19T08:17:01;6.80;;;3.15;;
35917;SDS011;22011;59.912;30.300;2023-09-19T08:19:32;11.85;;;3.65;;
35917;SDS011;22011;59.912;30.300;2023-09-19T08:22:00;7.88;;;3.90;;
35917;SDS011;22011;59.912;30.300;2023-09-19T08:24:29;5.18;;;3.33;;
35917;SDS011;22011;59.912;30.300;2023-09-19T08:26:59;8.13;;;4.05;;
35917;SDS011;22011;59.912;30.300;2023-09-19T08:29:30;4.90;;;3.60;;
35917;SDS011;22011;59.912;30.300;2023-09-19T08:31:58;5.22;;;3.53;;
35917;SDS011;22011;59.912;30.300;2023-09-19T08:34:26;11.85;;;4.40;;
35917;SDS011;22011;59.912;30.300;2023-09-19T08:36:55;8.02;;;4.65;;
35917;SDS011;22011;59.912;30.300;2023-09-19T08:39:23;5.85;;;4.00;;
35917;SDS011;22011;59.912;30.300;2023-09-19T08:41:56;8.48;;;3.83;;
35917;SDS011;22011;59.912;30.300;2023-09-19T08:44:24;9.43;;;3.97;;
35917;SDS011;22011;59.912;30.300;2023-09-19T08:46:54;11.88;;;4.13;;
35917;SDS011;22011;59.912;30.300;2023-09-19T08:49:24;6.82;;;4.88;;
35917;SDS011;22011;59.912;30.300;2023-09-19T08:52:01;8.88;;;4.25;;
35917;SDS011;22011;59.912;30.300;2023-09-19T08:54:37;9.68;;;4.55;;
35917;SDS011;22011;59.912;30.300;2023-09-19T08:57:07;8.32;;;4.30;;
35917;SDS011;22011;59.912;30.300;2023-09-19T08:59:37;8.32;;;4.80;;
35917;SDS011;22011;59.912;30.300;2023-09-19T09:02:08;10.45;;;5.28;;
35917;SDS011;22011;59.912;30.300;2023-09-19T09:04:39;6.70;;;4.45;;
35917;SDS011;22011;59.912;30.300;2023-09-19T09:07:12;9.93;;;4.40;;
35917;SDS011;22011;59.912;30.300;2023-09-19T09:09:40;11.65;;;4.30;;
35917;SDS011;22011;59.912;30.300;2023-09-19T09:12:08;7.60;;;4.32;;
35917;SDS011;22011;59.912;30.300;2023-09-19T09:14:39;12.13;;;4.65;;
35917;SDS011;22011;59.912;30.300;2023-09-19T09:17:07;8.27;;;4.32;;
35917;SDS011;22011;59.912;30.300;2023-09-19T09:19:35;7.28;;;4.20;;
35917;SDS011;22011;59.912;30.300;2023-09-19T09:22:07;8.88;;;4.35;;
35917;SDS011;22011;59.912;30.300;2023-09-19T09:24:36;9.82;;;3.90;;
35917;SDS011;22011;59.912;30.300;2023-09-19T09:27:06;5.22;;;4.30;;
35917;SDS011;22011;59.912;30.300;2023-09-19T09:29:45;7.55;;;4.30;;
35917;SDS011;22011;59.912;30.300;2023-09-19T09:32:19;11.73;;;4.30;;
35917;SDS011;22011;59.912;30.300;2023-09-19T09:34:49;10.50;;;4.57;;
35917;SDS011;22011;59.912;30.300;2023-09-19T09:37:19;5.07;;;4.18;;
35917;SDS011;22011;59.912;30.300;2023-09-19T09:39:50;14.47;;;5.47;;
35917;SDS011;22011;59.912;30.300;2023-09-19T09:42:29;13.32;;;4.28;;
35917;SDS011;22011;59.912;30.300;2023-09-19T09:47:42;10.07;;;4.95;;
35917;SDS011;22011;59.912;30.300;2023-09-19T09:50:23;11.68;;;5.25;;
35917;SDS011;22011;59.912;30.300;2023-09-19T09:53:05;7.28;;;4.32;;
35917;SDS011;22011;59.912;30.300;2023-09-19T09:58:36;9.93;;;4.82;;
35917;SDS011;22011;59.912;30.300;2023-09-19T10:01:06;10.88;;;4.38;;
35917;SDS011;22011;59.912;30.300;2023-09-19T10:03:41;6.47;;;4.70;;
35917;SDS011;22011;59.912;30.300;2023-09-19T10:06:10;7.97;;;5.37;;
35917;SDS011;22011;59.912;30.300;2023-09-19T10:08:59;7.70;;;4.78;;
35917;SDS011;22011;59.912;30.300;2023-09-19T10:11:42;7.07;;;5.20;;
35917;SDS011;22011;59.912;30.300;2023-09-19T10:14:11;9.57;;;5.22;;
35917;SDS011;22011;59.912;30.300;2023-09-19T10:16:40;7.55;;;4.57;;
35917;SDS011;22011;59.912;30.300;2023-09-19T10:19:20;6.50;;;5.13;;
35917;SDS011;22011;59.912;30.300;2023-09-19T10:21:50;11.98;;;5.57;;
35917;SDS011;22011;59.912;30.300;2023-09-19T10:24:22;9.32;;;5.13;;
35917;SDS011;22011;59.912;30.300;2023-09-19T10:26:52;11.65;;;5.53;;
35917;SDS011;22011;59.912;30.300;2023-09-19T10:29:21;12.65;;;5.47;;
35917;SDS011;22011;59.912;30.300;2023-09-19T10:31:49;11.77;;;5.95;;
35917;SDS011;22011;59.912;30.300;2023-09-19T10:34:20;10.77;;;5.93;;
35917;SDS011;22011;59.912;30.300;2023-09-19T10:36:50;10.40;;;7.38;;
35917;SDS011;22011;59.912;30.300;2023-09-19T10:39:18;7.03;;;5.75;;
35917;SDS011;22011;59.912;30.300;2023-09-19T10:41:50;8.98;;;5.68;;
35917;SDS011;22011;59.912;30.300;2023-09-19T10:44:21;8.80;;;6.18;;
35917;SDS011;22011;59.912;30.300;2023-09-19T10:46:52;9.73;;;6.82;;
35917;SDS011;22011;59.912;30.300;2023-09-19T10:49:20;15.02;;;5.80;;
35917;SDS011;22011;59.912;30.300;2023-09-19T10:51:49;14.52;;;6.10;;
35917;SDS011;22011;59.912;30.300;2023-09-19T10:54:22;8.20;;;6.30;;
35917;SDS011;22011;59.912;30.300;2023-09-19T10:56:55;7.75;;;6.35;;
35917;SDS011;22011;59.912;30.300;2023-09-19T10:59:25;11.60;;;6.20;;
35917;SDS011;22011;59.912;30.300;2023-09-19T11:01:57;6.95;;;6.25;;
35917;SDS011;22011;59.912;30.300;2023-09-19T11:04:27;8.25;;;5.75;;
35917;SDS011;22011;59.912;30.300;2023-09-19T11:07:00;10.13;;;6.72;;
35917;SDS011;22011;59.912;30.300;2023-09-19T11:09:48;10.10;;;6.90;;
35917;SDS011;22011;59.912;30.300;2023-09-19T11:24:27;6.88;;;6.18;;
35917;SDS011;22011;59.912;30.300;2023-09-19T11:27:09;9.23;;;5.57;;
35917;SDS011;22011;59.912;30.300;2023-09-19T11:29:40;13.35;;;6.65;;
35917;SDS011;22011;59.912;30.300;2023-09-19T11:32:08;9.00;;;7.13;;
35917;SDS011;22011;59.912;30.300;2023-09-19T11:34:40;12.10;;;7.65;;
35917;SDS011;22011;59.912;30.300;2023-09-19T11:40:37;12.32;;;6.28;;
35917;SDS011;22011;59.912;30.300;2023-09-19T11:46:04;7.20;;;6.25;;
35917;SDS011;22011;59.912;30.300;2023-09-19T11:48:32;9.13;;;6.47;;
35917;SDS011;22011;59.912;30.300;2023-09-19T11:51:09;7.63;;;6.22;;
35917;SDS011;22011;59.912;30.300;2023-09-19T11:53:45;10.27;;;7.47;;
35917;SDS011;22011;59.912;30.300;2023-09-19T11:56:18;8.82;;;6.53;;
35917;SDS011;22011;59.912;30.300;2023-09-19T11:58:48;10.40;;;6.57;;
35917;SDS011;22011;59.912;30.300;2023-09-19T12:01:22;9.15;;;6.45;;
35917;SDS011;22011;59.912;30.300;2023-09-19T12:03:54;10.77;;;6.50;;
35917;SDS011;22011;59.912;30.300;2023-09-19T12:06:24;10.75;;;6.57;;
35917;SDS011;22011;59.912;30.300;2023-09-19T12:08:52;11.18;;;6.93;;
35917;SDS011;22011;59.912;30.300;2023-09-19T12:11:21;11.98;;;6.72;;
35917;SDS011;22011;59.912;30.300;2023-09-19T12:13:50;13.27;;;3.53;;
35917;SDS011;22011;59.912;30.300;2023-09-19T12:16:19;8.85;;;5.20;;
35917;SDS011;22011;59.912;30.300;2023-09-19T12:18:50;6.65;;;4.63;;
35917;SDS011;22011;59.912;30.300;2023-09-19T12:21:23;6.70;;;4.38;;
35917;SDS011;22011;59.912;30.300;2023-09-19T12:23:57;11.75;;;7.22;;
35917;SDS011;22011;59.912;30.300;2023-09-19T12:26:39;11.63;;;5.13;;
35917;SDS011;22011;59.912;30.300;2023-09-19T12:29:12;9.02;;;5.15;;
35917;SDS011;22011;59.912;30.300;2023-09-19T12:31:48;14.07;;;5.10;;
35917;SDS011;22011;59.912;30.300;2023-09-19T12:34:22;11.07;;;5.82;;
35917;SDS011;22011;59.912;30.300;2023-09-19T12:37:08;9.38;;;6.55;;
35917;SDS011;22011;59.912;30.300;2023-09-19T12:39:42;14.00;;;6.93;;
35917;SDS011;22011;59.912;30.300;2023-09-19T12:42:15;9.70;;;6.00;;
35917;SDS011;22011;59.912;30.300;2023-09-19T12:44:43;7.45;;;4.20;;
35917;SDS011;22011;59.912;30.300;2023-09-19T12:47:13;14.77;;;5.63;;
35917;SDS011;22011;59.912;30.300;2023-09-19T12:52:41;12.75;;;5.70;;
35917;SDS011;22011;59.912;30.300;2023-09-19T12:55:23;10.23;;;4.90;;
35917;SDS011;22011;59.912;30.300;2023-09-19T12:57:56;8.68;;;5.40;;
35917;SDS011;22011;59.912;30.300;2023-09-19T13:00:32;9.10;;;6.03;;
35917;SDS011;22011;59.912;30.300;2023-09-19T13:03:14;10.02;;;5.93;;
35917;SDS011;22011;59.912;30.300;2023-09-19T13:05:50;26.80;;;6.32;;
35917;SDS011;22011;59.912;30.300;2023-09-19T13:08:20;13.48;;;6.75;;
35917;SDS011;22011;59.912;30.300;2023-09-19T13:11:05;13.98;;;6.40;;
35917;SDS011;22011;59.912;30.300;2023-09-19T13:13:37;11.27;;;6.18;;
35917;SDS011;22011;59.912;30.300;2023-09-19T13:16:06;9.23;;;6.45;;
35917;SDS011;22011;59.912;30.300;2023-09-19T13:18:44;15.57;;;6.57;;
35917;SDS011;22011;59.912;30.300;2023-09-19T13:21:14;12.77;;;6.32;;
35917;SDS011;22011;59.912;30.300;2023-09-19T13:24:18;10.00;;;6.43;;
35917;SDS011;22011;59.912;30.300;2023-09-19T13:26:48;15.13;;;6.63;;
35917;SDS011;22011;59.912;30.300;2023-09-19T13:29:16;9.77;;;6.50;;
35917;SDS011;22011;59.912;30.300;2023-09-19T13:31:45;14.32;;;6.82;;
35917;SDS011;22011;59.912;30.300;2023-09-19T13:34:13;11.98;;;7.05;;
35917;SDS011;22011;59.912;30.300;2023-09-19T13:36:43;15.68;;;6.55;;
35917;SDS011;22011;59.912;30.300;2023-09-19T13:39:14;12.95;;;6.75;;
35917;SDS011;22011;59.912;30.300;2023-09-19T13:41:41;8.70;;;6.35;;
35917;SDS011;22011;59.912;30.300;2023-09-19T13:44:12;14.20;;;6.85;;
35917;SDS011;22011;59.912;30.300;2023-09-19T13:46:39;15.32;;;8.73;;
35917;SDS011;22011;59.912;30.300;2023-09-19T13:49:11;11.60;;;6.75;;
35917;SDS011;22011;59.912;30.300;2023-09-19T13:51:39;8.75;;;6.40;;
35917;SDS011;22011;59.912;30.300;2023-09-19T13:54:10;6.85;;;6.13;;
35917;SDS011;22011;59.912;30.300;2023-09-19T13:56:38;10.23;;;6.53;;
35917;SDS011;22011;59.912;30.300;2023-09-19T13:59:06;16.92;;;7.15;;
35917;SDS011;22011;59.912;30.300;2023-09-19T14:01:34;10.45;;;6.47;;
35917;SDS011;22011;59.912;30.300;2023-09-19T14:04:01;8.38;;;6.05;;
35917;SDS011;22011;59.912;30.300;2023-09-19T14:06:29;11.45;;;6.55;;
35917;SDS011;22011;59.912;30.300;2023-09-19T14:08:57;12.50;;;6.50;;
35917;SDS011;22011;59.912;30.300;2023-09-19T14:11:26;6.78;;;6.07;;
35917;SDS011;22011;59.912;30.300;2023-09-19T14:13:53;10.65;;;6.50;;
35917;SDS011;22011;59.912;30.300;2023-09-19T14:16:21;9.35;;;6.10;;
35917;SDS011;22011;59.912;30.300;2023-09-19T14:18:50;12.68;;;7.07;;
35917;SDS011;22011;59.912;30.300;2023-09-19T14:21:18;10.85;;;6.50;;
35917;SDS011;22011;59.912;30.300;2023-09-19T14:23:45;9.80;;;7.43;;
35917;SDS011;22011;59.912;30.300;2023-09-19T14:26:15;7.25;;;5.82;;
35917;SDS011;22011;59.912;30.300;2023-09-19T14:28:45;10.93;;;6.38;;
35917;SDS011;22011;59.912;30.300;2023-09-19T14:31:13;14.90;;;6.03;;
35917;SDS011;22011;59.912;30.300;2023-09-19T14:33:41;38.28;;;8.13;;
35917;SDS011;22011;59.912;30.300;2023-09-19T14:36:10;10.40;;;6.90;;
35917;SDS011;22011;59.912;30.300;2023-09-19T14:38:39;15.67;;;6.80;;
35917;SDS011;22011;59.912;30.300;2023-09-19T14:41:06;14.15;;;6.55;;
35917;SDS011;22011;59.912;30.300;2023-09-19T14:43:34;8.57;;;6.30;;
35917;SDS011;22011;59.912;30.300;2023-09-19T14:46:05;8.32;;;5.93;;
35917;SDS011;22011;59.912;30.300;2023-09-19T14:48:35;16.38;;;6.97;;
35917;SDS011;22011;59.912;30.300;2023-09-19T14:51:03;17.67;;;7.38;;
35917;SDS011;22011;59.912;30.300;2023-09-19T14:53:31;10.23;;;5.85;;
35917;SDS011;22011;59.912;30.300;2023-09-19T14:55:59;18.35;;;7.93;;
35917;SDS011;22011;59.912;30.300;2023-09-19T15:01:02;23.08;;;7.70;;
35917;SDS011;22011;59.912;30.300;2023-09-19T15:03:32;11.23;;;7.18;;
35917;SDS011;22011;59.912;30.300;2023-09-19T15:06:01;11.23;;;6.85;;
35917;SDS011;22011;59.912;30.300;2023-09-19T15:08:30;12.07;;;6.88;;
35917;SDS011;22011;59.912;30.300;2023-09-19T15:10:59;12.18;;;6.45;;
35917;SDS011;22011;59.912;30.300;2023-09-19T15:13:29;11.95;;;7.75;;
35917;SDS011;22011;59.912;30.300;2023-09-19T15:16:00;7.95;;;6.25;;
35917;SDS011;22011;59.912;30.300;2023-09-19T15:18:28;9.75;;;6.47;;
35917;SDS011;22011;59.912;30.300;2023-09-19T15:21:00;7.82;;;5.85;;
35917;SDS011;22011;59.912;30.300;2023-09-19T15:23:29;13.40;;;6.85;;
35917;SDS011;22011;59.912;30.300;2023-09-19T15:25:58;12.48;;;6.53;;